createdAt,value
2022-11-29T00:01:31.537Z,103022.50
2022-11-29T00:04:36.458Z,103020.69
2022-11-29T00:07:42.583Z,103022.41
2022-11-29T00:10:47.495Z,103019.22
2022-11-29T00:13:52.169Z,103014.00
2022-11-29T00:17:02.033Z,103015.91
2022-11-29T00:20:10.308Z,103006.50
2022-11-29T00:23:16.516Z,103000.72
2022-11-29T00:26:21.349Z,103006.66
2022-11-29T00:29:26.122Z,103010.09
2022-11-29T00:32:30.766Z,103002.59
2022-11-29T00:35:35.481Z,103004.31
2022-11-29T00:38:41.892Z,102997.59
2022-11-29T00:41:47.165Z,103002.72
2022-11-29T00:44:51.858Z,103003.66
2022-11-29T00:47:57.036Z,103005.25
2022-11-29T00:51:01.778Z,103006.88
2022-11-29T00:54:07.984Z,103003.66
2022-11-29T00:57:14.411Z,102998.28
2022-11-29T01:00:20.028Z,102999.22
2022-11-29T01:03:25.141Z,102997.59
2022-11-29T01:06:29.806Z,102995.13
2022-11-29T01:09:36.007Z,103002.63
2022-11-29T01:12:41.269Z,102995.66
2022-11-29T01:15:45.969Z,103006.50
2022-11-29T01:18:50.613Z,103006.03
2022-11-29T01:21:55.305Z,103003.53
2022-11-29T01:25:01.512Z,103003.66
2022-11-29T01:28:06.305Z,102998.47
2022-11-29T01:31:13.537Z,102992.59
2022-11-29T01:34:18.564Z,103002.03
2022-11-29T01:37:23.375Z,102994.34
2022-11-29T01:40:29.493Z,103001.81
2022-11-29T01:43:34.959Z,103003.53
2022-11-29T01:46:41.894Z,102999.19
2022-11-29T01:49:49.033Z,102991.88
2022-11-29T01:52:54.098Z,103003.50
2022-11-29T01:56:04.464Z,103001.94
2022-11-29T01:59:13.054Z,103005.38
2022-11-29T02:02:23.541Z,102999.91
2022-11-29T02:05:28.679Z,102995.88
2022-11-29T02:08:38.348Z,103004.31
2022-11-29T02:12:09.402Z,103001.63
2022-11-29T02:15:27.160Z,103002.34
2022-11-29T02:18:45.458Z,102998.88
2022-11-29T02:21:53.108Z,103004.00
2022-11-29T02:25:19.269Z,103007.31
2022-11-29T02:28:57.219Z,103002.41
2022-11-29T02:32:47.798Z,103000.81
2022-11-29T02:36:31.886Z,103004.16
2022-11-29T02:40:00.029Z,103000.72
2022-11-29T02:43:31.191Z,102998.03
2022-11-29T02:46:56.413Z,103008.97
2022-11-29T02:50:26.360Z,103010.91
2022-11-29T02:53:36.825Z,103009.13
2022-11-29T02:56:47.485Z,102998.88
2022-11-29T02:59:58.671Z,103003.25
2022-11-29T03:03:08.140Z,103007.47
2022-11-29T03:06:28.500Z,103005.63
2022-11-29T03:09:40.492Z,102997.94
2022-11-29T03:12:48.717Z,102998.09
2022-11-29T03:16:00.705Z,103001.53
2022-11-29T03:19:46.642Z,102998.88
2022-11-29T03:23:10.198Z,103005.59
2022-11-29T03:26:18.795Z,102994.28
2022-11-29T03:29:28.384Z,102993.81
2022-11-29T03:32:41.042Z,102988.84
2022-11-29T03:35:52.169Z,102988.91
2022-11-29T03:39:04.952Z,102992.16
2022-11-29T03:42:17.511Z,102994.50
2022-11-29T03:45:28.947Z,102997.22
2022-11-29T03:48:36.632Z,102996.22
2022-11-29T03:51:58.289Z,102998.59
2022-11-29T03:55:21.249Z,103002.91
2022-11-29T03:58:46.219Z,102997.22
2022-11-29T04:02:27.304Z,103004.59
2022-11-29T04:05:58.783Z,103002.00
2022-11-29T04:09:36.561Z,103009.69
2022-11-29T04:13:38.365Z,103008.84
2022-11-29T04:17:26.301Z,103010.66
2022-11-29T04:21:11.866Z,103011.50
2022-11-29T04:24:57.042Z,103018.28
2022-11-29T04:28:28.136Z,103015.09
2022-11-29T04:31:45.079Z,103004.16
2022-11-29T04:35:18.139Z,103013.47
2022-11-29T04:38:48.412Z,103016.16
2022-11-29T04:42:42.248Z,103016.16
2022-11-29T04:46:15.867Z,103014.44
2022-11-29T04:49:46.079Z,103019.59
2022-11-29T04:53:32.389Z,103021.31
2022-11-29T04:56:44.321Z,103019.38
2022-11-29T04:59:53.435Z,103028.97
2022-11-29T05:03:00.952Z,103024.66
2022-11-29T05:06:20.598Z,103021.31
2022-11-29T05:09:36.068Z,103028.69
2022-11-29T05:12:47.243Z,103026.44
2022-11-29T05:16:15.907Z,103031.69
2022-11-29T05:19:54.838Z,103029.63
2022-11-29T05:23:18.639Z,103033.94
2022-11-29T05:26:30.357Z,103036.56
2022-11-29T05:29:41.790Z,103043.88
2022-11-29T05:32:57.769Z,103033.97
2022-11-29T05:36:11.661Z,103036.66
2022-11-29T05:39:32.381Z,103040.06
2022-11-29T05:42:57.395Z,103050.44
2022-11-29T05:46:08.630Z,103047.75
2022-11-29T05:49:25.398Z,103054.50
2022-11-29T05:52:43.284Z,103060.31
2022-11-29T05:55:56.629Z,103058.59
2022-11-29T05:59:08.115Z,103051.78
2022-11-29T06:02:34.240Z,103060.56
2022-11-29T06:05:47.029Z,103058.31
2022-11-29T06:08:57.156Z,103062.56
2022-11-29T06:12:05.391Z,103057.59
2022-11-29T06:15:51.964Z,103061.91
2022-11-29T06:19:42.370Z,103066.88
2022-11-29T06:23:03.048Z,103071.91
2022-11-29T06:26:22.746Z,103069.59
2022-11-29T06:29:34.680Z,103069.56
2022-11-29T06:32:47.729Z,103075.53
2022-11-29T06:36:09.229Z,103072.72
2022-11-29T06:39:15.191Z,103077.00
2022-11-29T06:42:19.868Z,103080.41
2022-11-29T06:45:25.420Z,103069.28
2022-11-29T06:48:38.520Z,103075.47
2022-11-29T06:51:56.226Z,103078.88
2022-11-29T06:55:18.278Z,103087.34
2022-11-29T06:58:41.199Z,103083.38
2022-11-29T07:01:52.715Z,103083.25
2022-11-29T07:05:15.430Z,103085.78
2022-11-29T07:08:22.989Z,103090.06
2022-11-29T07:11:29.186Z,103096.78
2022-11-29T07:14:34.807Z,103097.53
2022-11-29T07:17:47.481Z,103100.94
2022-11-29T07:21:05.244Z,103098.50
2022-11-29T07:24:21.118Z,103105.13
2022-11-29T07:27:30.991Z,103103.66
2022-11-29T07:30:43.360Z,103097.81
2022-11-29T07:33:58.759Z,103096.09
2022-11-29T07:37:10.952Z,103111.97
2022-11-29T07:40:17.181Z,103113.69
2022-11-29T07:43:36.889Z,103109.84
2022-11-29T07:46:41.714Z,103119.22
2022-11-29T07:49:46.396Z,103118.63
2022-11-29T07:52:52.879Z,103120.28
2022-11-29T07:55:58.058Z,103117.94
2022-11-29T07:59:02.905Z,103109.44
2022-11-29T08:02:11.619Z,103112.19
2022-11-29T08:05:16.920Z,103113.50
2022-11-29T08:08:23.099Z,103115.88
2022-11-29T08:11:28.482Z,103111.34
2022-11-29T08:14:33.860Z,103110.25
2022-11-29T08:17:38.908Z,103113.66
2022-11-29T08:20:43.719Z,103117.81
2022-11-29T08:23:50.812Z,103119.41
2022-11-29T08:26:55.473Z,103120.22
2022-11-29T08:30:00.760Z,103122.06
2022-11-29T08:33:05.801Z,103119.00
2022-11-29T08:36:15.392Z,103112.16
2022-11-29T08:39:21.569Z,103118.06
2022-11-29T08:42:26.390Z,103124.59
2022-11-29T08:45:30.981Z,103122.25
2022-11-29T08:48:36.973Z,103122.00
2022-11-29T08:51:41.988Z,103116.31
2022-11-29T08:54:48.569Z,103119.88
2022-11-29T08:57:54.117Z,103117.25
2022-11-29T09:00:59.324Z,103122.44
2022-11-29T09:04:04.204Z,103114.88
2022-11-29T09:07:09.211Z,103123.31
2022-11-29T09:10:15.371Z,103128.28
2022-11-29T09:13:20.105Z,103124.13
2022-11-29T09:16:28.075Z,103125.09
2022-11-29T09:19:32.906Z,103120.03
2022-11-29T09:22:37.536Z,103118.41
2022-11-29T09:25:49.875Z,103118.53
2022-11-29T09:28:54.916Z,103124.13
2022-11-29T09:31:59.827Z,103125.84
2022-11-29T09:35:04.588Z,103121.03
2022-11-29T09:38:09.459Z,103123.50
2022-11-29T09:41:48.551Z,103121.75
2022-11-29T09:45:04.110Z,103120.97
2022-11-29T09:48:26.977Z,103108.34
2022-11-29T09:51:39.845Z,103118.59
2022-11-29T09:54:55.602Z,103124.66
2022-11-29T09:58:03.833Z,103114.00
2022-11-29T10:01:14.678Z,103122.56
2022-11-29T10:04:22.979Z,103120.06
2022-11-29T10:07:32.655Z,103127.75
2022-11-29T10:10:43.224Z,103132.75
2022-11-29T10:13:53.637Z,103125.38
2022-11-29T10:17:04.377Z,103129.63
2022-11-29T10:20:15.940Z,103122.81
2022-11-29T10:23:25.509Z,103134.66
2022-11-29T10:26:35.001Z,103129.44
2022-11-29T10:29:41.588Z,103124.53
2022-11-29T10:32:48.736Z,103127.03
2022-11-29T10:35:57.951Z,103138.22
2022-11-29T10:39:11.391Z,103140.53
2022-11-29T10:42:39.341Z,103141.59
2022-11-29T10:45:50.804Z,103135.28
2022-11-29T10:48:56.029Z,103133.56
2022-11-29T10:52:01.309Z,103138.63
2022-11-29T10:55:08.073Z,103137.03
2022-11-29T10:58:24.798Z,103134.59
2022-11-29T11:01:38.967Z,103137.72
2022-11-29T11:04:48.065Z,103137.75
2022-11-29T11:07:57.967Z,103135.03
2022-11-29T11:11:04.844Z,103138.81
2022-11-29T11:14:24.632Z,103133.97
2022-11-29T11:17:32.973Z,103129.63
2022-11-29T11:20:40.877Z,103128.66
2022-11-29T11:23:55.812Z,103135.09
2022-11-29T11:27:01.599Z,103142.78
2022-11-29T11:30:09.131Z,103136.59
2022-11-29T11:33:23.053Z,103137.13
2022-11-29T11:36:28.891Z,103139.03
2022-11-29T11:39:33.613Z,103137.81
2022-11-29T11:42:41.034Z,103136.31
2022-11-29T11:45:53.834Z,103131.13
2022-11-29T11:49:00.549Z,103139.84
2022-11-29T11:52:07.121Z,103138.03
2022-11-29T11:55:33.293Z,103140.00
2022-11-29T11:58:40.345Z,103145.13
2022-11-29T12:01:45.012Z,103138.22
2022-11-29T12:04:51.099Z,103138.31
2022-11-29T12:08:09.027Z,103143.28
2022-11-29T12:11:17.257Z,103138.94
2022-11-29T12:14:30.830Z,103140.00
2022-11-29T12:17:38.459Z,103139.94
2022-11-29T12:20:50.251Z,103141.53
2022-11-29T12:23:59.386Z,103133.97
2022-11-29T12:27:06.943Z,103146.69
2022-11-29T12:30:15.325Z,103138.94
2022-11-29T12:33:31.770Z,103135.41
2022-11-29T12:36:43.200Z,103133.84
2022-11-29T12:39:58.679Z,103136.41
2022-11-29T12:43:11.032Z,103138.94
2022-11-29T12:46:22.249Z,103142.13
2022-11-29T12:49:31.708Z,103138.81
2022-11-29T12:52:46.059Z,103143.97
2022-11-29T12:55:58.260Z,103139.94
2022-11-29T12:59:19.635Z,103137.47
2022-11-29T13:02:36.218Z,103142.47
2022-11-29T13:05:52.971Z,103148.19
2022-11-29T13:10:02.872Z,103139.41
2022-11-29T13:13:18.985Z,103136.31
2022-11-29T13:16:36.533Z,103145.56
2022-11-29T13:19:46.310Z,103136.09
2022-11-29T13:22:57.573Z,103142.84
2022-11-29T13:26:08.060Z,103141.88
2022-11-29T13:29:17.036Z,103137.53
2022-11-29T13:32:34.940Z,103145.78
2022-11-29T13:35:45.269Z,103133.03
2022-11-29T13:39:01.090Z,103135.53
2022-11-29T13:42:14.141Z,103144.84
2022-11-29T13:45:25.313Z,103141.75
2022-11-29T13:48:37.971Z,103137.44
2022-11-29T13:51:42.630Z,103138.31
2022-11-29T13:54:47.597Z,103145.91
2022-11-29T14:01:21.600Z,103152.75
2022-11-29T14:04:31.608Z,103155.38
2022-11-29T14:07:36.488Z,103151.06
2022-11-29T14:10:41.474Z,103150.13
2022-11-29T14:13:53.237Z,103148.34
2022-11-29T14:17:01.840Z,103146.88
2022-11-29T14:20:59.014Z,103144.94
2022-11-29T14:24:40.572Z,103156.06
2022-11-29T14:28:05.913Z,103155.09
2022-11-29T14:31:13.035Z,103153.44
2022-11-29T14:34:29.298Z,103164.59
2022-11-29T14:37:52.252Z,103157.44
2022-11-29T14:41:02.312Z,103150.69
2022-11-29T14:44:17.142Z,103150.72
2022-11-29T14:47:29.971Z,103153.38
2022-11-29T14:50:37.029Z,103153.25
2022-11-29T14:53:43.956Z,103155.56
2022-11-29T14:56:48.886Z,103158.25
2022-11-29T14:59:55.040Z,103159.97
2022-11-29T15:03:09.932Z,103151.53
2022-11-29T15:06:19.353Z,103156.72
2022-11-29T15:09:24.584Z,103161.81
2022-11-29T15:12:35.435Z,103148.09
2022-11-29T15:15:55.052Z,103170.09
2022-11-29T15:19:46.688Z,103163.03
2022-11-29T15:22:54.974Z,103160.59
2022-11-29T15:26:01.967Z,103166.47
2022-11-29T15:29:18.011Z,103169.81
2022-11-29T15:32:26.750Z,103156.88
2022-11-29T15:35:34.150Z,103155.97
2022-11-29T15:38:51.537Z,103165.41
2022-11-29T15:42:02.905Z,103162.16
2022-11-29T15:45:28.056Z,103164.69
2022-11-29T15:48:33.794Z,103160.13
2022-11-29T15:51:40.166Z,103162.03
2022-11-29T15:54:46.738Z,103161.34
2022-11-29T15:57:53.393Z,103156.94
2022-11-29T16:00:59.167Z,103149.28
2022-11-29T16:04:03.932Z,103160.03
2022-11-29T16:07:10.370Z,103160.94
2022-11-29T16:10:18.170Z,103158.47
2022-11-29T16:13:35.690Z,103159.28
2022-11-29T16:16:41.366Z,103170.13
2022-11-29T16:19:47.024Z,103166.16
2022-11-29T16:23:11.335Z,103162.16
2022-11-29T16:26:19.033Z,103162.16
2022-11-29T16:29:28.392Z,103159.50
2022-11-29T16:32:35.151Z,103152.88
2022-11-29T16:35:40.078Z,103158.69
2022-11-29T16:38:49.087Z,103159.66
2022-11-29T16:42:08.807Z,103168.94
2022-11-29T16:45:35.209Z,103170.56
2022-11-29T16:48:40.444Z,103170.63
2022-11-29T16:51:49.097Z,103172.25
2022-11-29T16:54:55.163Z,103174.06
2022-11-29T16:57:59.781Z,103172.53
2022-11-29T17:01:17.984Z,103172.50
2022-11-29T17:04:23.263Z,103172.34
2022-11-29T17:07:32.648Z,103170.00
2022-11-29T17:10:38.839Z,103175.22
2022-11-29T17:13:43.622Z,103181.06
2022-11-29T17:16:49.479Z,103179.56
2022-11-29T17:19:54.676Z,103177.00
2022-11-29T17:22:59.533Z,103176.00
2022-11-29T17:26:05.755Z,103171.00
2022-11-29T17:29:12.149Z,103169.38
2022-11-29T17:32:16.815Z,103178.66
2022-11-29T17:35:21.482Z,103174.47
2022-11-29T17:38:26.698Z,103170.19
2022-11-29T17:41:33.757Z,103170.00
2022-11-29T17:44:38.467Z,103172.63
2022-11-29T17:47:43.325Z,103175.38
2022-11-29T17:50:48.025Z,103172.84
2022-11-29T17:53:54.242Z,103176.84
2022-11-29T17:57:00.997Z,103177.72
2022-11-29T18:00:08.197Z,103183.69
2022-11-29T18:03:16.028Z,103183.81
2022-11-29T18:06:22.637Z,103180.44
2022-11-29T18:09:27.336Z,103184.91
2022-11-29T18:12:33.383Z,103198.13
2022-11-29T18:15:38.377Z,103198.19
2022-11-29T18:18:44.048Z,103198.31
2022-11-29T18:21:49.535Z,103198.81
2022-11-29T18:25:09.836Z,103202.28
2022-11-29T18:28:20.223Z,103203.47
2022-11-29T18:31:28.275Z,103208.41
2022-11-29T18:34:33.002Z,103200.84
2022-11-29T18:38:12.774Z,103207.56
2022-11-29T18:41:08.627Z,103209.16
2022-11-29T18:44:16.695Z,103211.75
2022-11-29T18:47:21.387Z,103210.03
2022-11-29T18:50:26.168Z,103214.13
2022-11-29T18:53:30.925Z,103216.09
2022-11-29T18:56:38.348Z,103215.19
2022-11-29T18:59:44.422Z,103221.88
2022-11-29T19:02:49.186Z,103228.88
2022-11-29T19:05:54.447Z,103230.50
2022-11-29T19:08:59.569Z,103235.66
2022-11-29T19:12:04.409Z,103223.94
2022-11-29T19:15:13.031Z,103228.00
2022-11-29T19:18:20.199Z,103226.16
2022-11-29T19:21:27.360Z,103224.56
2022-11-29T19:24:32.077Z,103235.41
2022-11-29T19:27:36.725Z,103233.75
2022-11-29T19:30:42.917Z,103233.59
2022-11-29T19:33:48.386Z,103233.91
2022-11-29T19:36:53.040Z,103237.97
2022-11-29T19:39:57.679Z,103237.38
2022-11-29T19:43:02.440Z,103247.69
2022-11-29T19:46:13.863Z,103249.16
2022-11-29T19:49:18.566Z,103249.91
2022-11-29T19:52:23.373Z,103248.19
2022-11-29T19:55:28.161Z,103255.03
2022-11-29T19:58:33.002Z,103259.31
2022-11-29T20:01:42.326Z,103258.63
2022-11-29T20:04:49.672Z,103267.34
2022-11-29T20:07:54.442Z,103257.25
2022-11-29T20:11:06.995Z,103262.56
2022-11-29T20:14:14.562Z,103263.97
2022-11-29T20:17:20.726Z,103261.47
2022-11-29T20:20:25.487Z,103268.00
2022-11-29T20:23:30.745Z,103282.31
2022-11-29T20:26:39.311Z,103274.72
2022-11-29T20:29:44.192Z,103277.97
2022-11-29T20:32:50.942Z,103279.59
2022-11-29T20:36:03.952Z,103278.13
2022-11-29T20:39:20.035Z,103281.31
2022-11-29T20:42:54.588Z,103282.31
2022-11-29T20:45:59.825Z,103283.84
2022-11-29T20:49:07.008Z,103293.09
2022-11-29T20:52:24.149Z,103289.72
2022-11-29T20:55:29.032Z,103294.09
2022-11-29T20:58:34.725Z,103291.50
2022-11-29T21:01:39.476Z,103300.16
2022-11-29T21:04:45.798Z,103295.06
2022-11-29T21:07:50.720Z,103301.44
2022-11-29T21:10:55.793Z,103305.66
2022-11-29T21:14:03.860Z,103309.81
2022-11-29T21:17:09.697Z,103303.94
2022-11-29T21:20:22.845Z,103305.50
2022-11-29T21:23:38.044Z,103304.69
2022-11-29T21:26:46.178Z,103308.09
2022-11-29T21:29:51.973Z,103304.63
2022-11-29T21:32:57.517Z,103313.97
2022-11-29T21:36:06.096Z,103310.72
2022-11-29T21:39:14.152Z,103309.06
2022-11-29T21:42:19.138Z,103302.03
2022-11-29T21:45:23.845Z,103307.94
2022-11-29T21:48:37.979Z,103304.47
2022-11-29T21:51:44.089Z,103310.47
2022-11-29T21:54:49.071Z,103312.88
2022-11-29T21:57:54.079Z,103317.09
2022-11-29T22:01:06.180Z,103304.38
2022-11-29T22:04:11.400Z,103306.31
2022-11-29T22:07:17.482Z,103311.66
2022-11-29T22:10:22.204Z,103309.06
2022-11-29T22:13:26.880Z,103315.38
2022-11-29T22:16:31.819Z,103316.31
2022-11-29T22:19:37.383Z,103320.63
2022-11-29T22:22:43.398Z,103312.03
2022-11-29T22:25:48.096Z,103316.59
2022-11-29T22:28:52.894Z,103320.66
2022-11-29T22:31:59.304Z,103318.28
2022-11-29T22:35:04.024Z,103310.72
2022-11-29T22:38:10.373Z,103310.06
2022-11-29T22:41:16.386Z,103315.81
2022-11-29T22:44:21.035Z,103301.69
2022-11-29T22:47:25.719Z,103312.75
2022-11-29T22:50:30.709Z,103314.44
2022-11-29T22:53:37.385Z,103302.69
2022-11-29T22:56:44.596Z,103312.72
2022-11-29T22:59:49.294Z,103305.59
2022-11-29T23:02:58.169Z,103309.25
2022-11-29T23:06:07.833Z,103312.75
2022-11-29T23:09:17.118Z,103316.63
2022-11-29T23:12:22.001Z,103312.59
2022-11-29T23:15:26.797Z,103308.88
2022-11-29T23:18:31.590Z,103314.81
2022-11-29T23:21:38.914Z,103316.44
2022-11-29T23:24:46.889Z,103313.16
2022-11-29T23:27:54.008Z,103314.63
2022-11-29T23:31:00.117Z,103313.84
2022-11-29T23:34:05.541Z,103312.41
2022-11-29T23:37:11.358Z,103306.19
2022-11-29T23:40:17.706Z,103318.22
2022-11-29T23:43:22.809Z,103307.13
2022-11-29T23:46:27.996Z,103317.25
2022-11-29T23:49:35.311Z,103318.97
2022-11-29T23:52:40.164Z,103312.19
2022-11-29T23:55:47.851Z,103306.31
2022-11-29T23:58:52.529Z,103304.63
